Hlavní strana
METAR-TAF:

METAR-TAF

Letiště :

Kajaani, Finsko

zeměpisná šířka: 64-17N, zeměpisná délka: 027-41E, výška: 143 m

Aktuální stav počasí

Zpráva byla vytvořena před 43 minutami, v 21:20 UTC
Východojihovýchodní vítr 10 kt, proměnlivý mezi východním a jihojihovýchodním
Teplota -4°C
Vlhkost vzduchu 93%
Tlak 1017 hPa
Viditelnost 10 km a více
Oblačno až skoro zataženo ve výšce 400 ft
Zataženo ve výšce 1700 ft

METAR: EFKI 122120Z AUTO 11010KT 080V150 9999 BKN004 OVC017 M04/M05 Q1017

Čas: 00:03 (22:03 UTC)

Předpověď počasí

Zpráva byla vytvořena před 4 hodinami a 34 minutami, v 17:29 UTC
Předpověď platná od 12 v 18 UTC do 12 v 22 UTC
Jihovýchodní vítr 5 kt
Viditelnost 10 km a více
Zataženo ve výšce 300 ft
Dočasný
od 12 v 18 UTC do 12 v 22 UTC
Zataženo ve výšce 500 ft

TAF: EFKI 121729Z 1218/1222 14005KT 9999 OVC003 TEMPO 1218/1222 OVC005

Stav a předpovědi počasí z více než 4 000 letišť (zprávy METAR a TAF).

Červené a žluté tečky na mapě představují dostupné meteorologické stanice.

Když kurzor umístíte na tečku, zobrazí se název stanice.

Pak kliknutím zobrazíte stav a předpověď počasí.

Chcete-li změnit mapu, kliknutím na zelené tlačítko se znaménkem +mapu přiblížíte, kliknutím na zelené tlačítko se znaménkem – mapu oddálíte a kliknutím na zelené šipky přejdete na sousední mapy.


METAR-TAF: